Sarah Desgagnes — XJAB — position and weather

sailwx.info

Track history (hours):
 
Tides and Currents Weather Stations Pressure Air Temp Water Temp Dewpoint Dewpoint Depression Visibility Wind Speed Wind Dir Waves Ship Positions

Sarah Desgagnes

Last reported at 2015-Apr-26 11:33 UTC. Time now 2015-May-04 09:01 UTC.
Position N 46°38' W 071°56'.

Length 148 m; draft 5.5 m.

Type: Tanker. MMSI: 316012308.

Date/timePositionNaut miles runAvg speedWind from/ knotsBaromVisibWave heightAir tempDewpointWater temp
2015-Apr-26 11:33N 46°38' W 071°56'1716.7
2015-Apr-26 10:33N 46°28' W 072°15'1514.9
2015-Apr-26 09:33N 46°19' W 072°33'1312.7
2015-Apr-26 08:33N 46°13' W 072°49'55 1.8
2015-Apr-25 02:34N 45°26' W 073°30'5 3.6
2015-Apr-25 01:03N 45°24' W 073°38'3 6.5
2015-Apr-25 00:33N 45°25' W 073°42'9 8.6
2015-Apr-24 23:28N 45°20' W 073°53'0 0.1
2015-Apr-24 22:28N 45°20' W 073°53'0 0.0
2015-Apr-24 21:28N 45°20' W 073°53'0 0.0
2015-Apr-24 20:31N 45°20' W 073°53'0 0.0
2015-Apr-24 19:25N 45°20' W 073°53'0 0.0
2015-Apr-24 18:31N 45°20' W 073°53'0 0.0
2015-Apr-24 17:31N 45°20' W 073°53'0 0.0
2015-Apr-24 16:19N 45°20' W 073°53'0 0.0
2015-Apr-24 15:31N 45°20' W 073°53'0 0.0
2015-Apr-24 14:31N 45°20' W 073°53'0 0.0
2015-Apr-24 13:31N 45°20' W 073°53'0 0.0
2015-Apr-24 12:25N 45°20' W 073°53'0 0.0
2015-Apr-24 10:31N 45°20' W 073°53'0 0.0
2015-Apr-24 09:33N 45°20' W 073°53'0 0.0
2015-Apr-24 08:33N 45°20' W 073°53'0 0.0
2015-Apr-24 07:33N 45°20' W 073°53'1 0.9
2015-Apr-24 06:33N 45°20' W 073°55'2 1.7
2015-Apr-24 05:33N 45°18' W 073°56'1 0.8
2015-Apr-24 04:33N 45°17' W 073°56'8 7.2
2015-Apr-24 03:23N 45°13' W 074°07'118 9.8
2015-Apr-23 15:23N 44°07' W 076°23'1 0.8
2015-Apr-23 14:33N 44°06' W 076°24'6 5.5
2015-Apr-23 13:33N 44°01' W 076°27'163 8.1
2015-Apr-22 17:28N 42°37' W 079°39'1314.7
2015-Apr-22 16:33N 42°30' W 079°54'  
2015-Apr-19 20:21N 42°36' W 079°48'179 7.5
2015-Apr-18 20:34N 44°11' W 076°19'1 0.7
2015-Apr-18 19:34N 44°12' W 076°18'9 8.6
2015-Apr-18 18:34N 44°14' W 076°07'100 8.1
2015-Apr-18 06:15N 45°14' W 074°14'8 9.7
2015-Apr-18 05:26N 45°13' W 074°02'7 7.6
2015-Apr-18 04:32N 45°18' W 073°56'1 0.9
2015-Apr-18 03:33N 45°19' W 073°55'5 5.2
2015-Apr-18 02:33N 45°22' W 073°49'8 7.9
2015-Apr-18 01:33N 45°24' W 073°38'4 2.9
2015-Apr-18 00:12N 45°24' W 073°33'6 0.2
2015-Apr-16 12:26N 45°30' W 073°31'  
Track history (hours):
 
Tides and Currents Weather Stations Pressure Air Temp Water Temp Dewpoint Dewpoint Depression Visibility Wind Speed Wind Dir Waves Ship Positions

Sarah Desgagnes

Last reported at 2015-Apr-26 11:33 UTC. Time now 2015-May-04 09:01 UTC.
Position N 46°38' W 071°56'.

Length 148 m; draft 5.5 m.

Type: Tanker. MMSI: 316012308.

Date/timePositionNaut miles runAvg speedWind from/ knotsBaromVisibWave heightAir tempDewpointWater temp
2015-Apr-26 11:33N 46°38' W 071°56'1716.7
2015-Apr-26 10:33N 46°28' W 072°15'1514.9
2015-Apr-26 09:33N 46°19' W 072°33'1312.7
2015-Apr-26 08:33N 46°13' W 072°49'55 1.8
2015-Apr-25 02:34N 45°26' W 073°30'5 3.6
2015-Apr-25 01:03N 45°24' W 073°38'3 6.5
2015-Apr-25 00:33N 45°25' W 073°42'9 8.6
2015-Apr-24 23:28N 45°20' W 073°53'0 0.1
2015-Apr-24 22:28N 45°20' W 073°53'0 0.0
2015-Apr-24 21:28N 45°20' W 073°53'0 0.0
2015-Apr-24 20:31N 45°20' W 073°53'0 0.0
2015-Apr-24 19:25N 45°20' W 073°53'0 0.0
2015-Apr-24 18:31N 45°20' W 073°53'0 0.0
2015-Apr-24 17:31N 45°20' W 073°53'0 0.0
2015-Apr-24 16:19N 45°20' W 073°53'0 0.0
2015-Apr-24 15:31N 45°20' W 073°53'0 0.0
2015-Apr-24 14:31N 45°20' W 073°53'0 0.0
2015-Apr-24 13:31N 45°20' W 073°53'0 0.0
2015-Apr-24 12:25N 45°20' W 073°53'0 0.0
2015-Apr-24 10:31N 45°20' W 073°53'0 0.0
2015-Apr-24 09:33N 45°20' W 073°53'0 0.0
2015-Apr-24 08:33N 45°20' W 073°53'0 0.0
2015-Apr-24 07:33N 45°20' W 073°53'1 0.9
2015-Apr-24 06:33N 45°20' W 073°55'2 1.7
2015-Apr-24 05:33N 45°18' W 073°56'1 0.8
2015-Apr-24 04:33N 45°17' W 073°56'8 7.2
2015-Apr-24 03:23N 45°13' W 074°07'118 9.8
2015-Apr-23 15:23N 44°07' W 076°23'1 0.8
2015-Apr-23 14:33N 44°06' W 076°24'6 5.5
2015-Apr-23 13:33N 44°01' W 076°27'163 8.1
2015-Apr-22 17:28N 42°37' W 079°39'1314.7
2015-Apr-22 16:33N 42°30' W 079°54'  
2015-Apr-19 20:21N 42°36' W 079°48'179 7.5
2015-Apr-18 20:34N 44°11' W 076°19'1 0.7
2015-Apr-18 19:34N 44°12' W 076°18'9 8.6
2015-Apr-18 18:34N 44°14' W 076°07'100 8.1
2015-Apr-18 06:15N 45°14' W 074°14'8 9.7
2015-Apr-18 05:26N 45°13' W 074°02'7 7.6
2015-Apr-18 04:32N 45°18' W 073°56'1 0.9
2015-Apr-18 03:33N 45°19' W 073°55'5 5.2
2015-Apr-18 02:33N 45°22' W 073°49'8 7.9
2015-Apr-18 01:33N 45°24' W 073°38'4 2.9
2015-Apr-18 00:12N 45°24' W 073°33'6 0.2
2015-Apr-16 12:26N 45°30' W 073°31'  

Dump ship's entire track history